Time;durP1;ratioP1;P1;durP2;ratioP2;P2;SDS_P1;SDS_P2;PMS_P1;PMS_P2;Temp;Humidity;BMP_temperature;BMP_pressure;BME280_temperature;BME280_humidity;BME280_pressure;Samples;Min_cycle;Max_cycle;Signal;HPM_P1;HPM_P2
2022/09/24 00:00:57;;;;;;;3.23;2.60;;;;;;;;;;5021688;28;20206;-54
2022/09/24 00:03:25;;;;;;;3.37;2.30;;;;;;;;;;5025648;28;20227;-54
2022/09/24 00:05:52;;;;;;;2.70;2.00;;;;;;;;;;5019816;28;20277;-55
2022/09/24 00:08:19;;;;;;;3.67;2.00;;;;;;;;;;5023725;28;20294;-54
2022/09/24 00:10:47;;;;;;;2.87;1.93;;;;;;;;;;5025192;28;20637;-54
2022/09/24 00:13:16;;;;;;;3.13;2.57;;;;;;;;;;5022747;28;20684;-54
2022/09/24 00:15:48;;;;;;;2.43;2.23;;;;;;;;;;5023827;28;20243;-55
2022/09/24 00:18:16;;;;;;;3.47;2.83;;;;;;;;;;5017491;28;20208;-51
2022/09/24 00:20:43;;;;;;;2.73;2.30;;;;;;;;;;5024477;28;20245;-52
2022/09/24 00:23:10;;;;;;;3.90;2.53;;;;;;;;;;5019114;28;20270;-52
2022/09/24 00:28:28;;;;;;;2.73;2.40;;;;;;;;;;5020133;28;20226;-52
2022/09/24 00:30:58;;;;;;;4.90;2.73;;;;;;;;;;5022530;28;20298;-54
2022/09/24 00:33:27;;;;;;;2.03;1.80;;;;;;;;;;5006582;28;20211;-55
2022/09/24 00:36:01;;;;;;;3.13;2.40;;;;;;;;;;5022659;28;20739;-52
2022/09/24 00:38:28;;;;;;;2.90;2.47;;;;;;;;;;5006201;28;20196;-52
2022/09/24 00:40:54;;;;;;;2.43;2.23;;;;;;;;;;5017232;28;20294;-53
2022/09/24 00:43:28;;;;;;;3.20;2.80;;;;;;;;;;5024963;28;20661;-53
2022/09/24 00:46:21;;;;;;;3.73;2.53;;;;;;;;;;5020569;28;20774;-54
2022/09/24 00:48:49;;;;;;;3.43;2.37;;;;;;;;;;5007052;28;20282;-52
2022/09/24 00:51:18;;;;;;;2.87;2.20;;;;;;;;;;5001286;28;20394;-54
2022/09/24 00:53:46;;;;;;;2.87;2.47;;;;;;;;;;5025477;28;20219;-52
2022/09/24 00:56:16;;;;;;;2.83;2.00;;;;;;;;;;5005534;28;20798;-52
2022/09/24 00:58:51;;;;;;;2.40;1.67;;;;;;;;;;5018007;28;20277;-51
2022/09/24 01:01:20;;;;;;;2.60;1.70;;;;;;;;;;5006201;28;20668;-51
2022/09/24 01:03:47;;;;;;;3.20;2.40;;;;;;;;;;5002740;28;20197;-53
2022/09/24 01:06:13;;;;;;;2.67;2.13;;;;;;;;;;5002739;28;20666;-53
2022/09/24 01:08:41;;;;;;;1.53;1.40;;;;;;;;;;5019363;28;20231;-51
2022/09/24 01:11:20;;;;;;;2.23;1.53;;;;;;;;;;5005754;28;20283;-54
2022/09/24 01:14:08;;;;;;;3.03;2.40;;;;;;;;;;5023970;28;20319;-54
2022/09/24 01:16:44;;;;;;;3.33;2.63;;;;;;;;;;5020885;28;20259;-53
2022/09/24 01:19:26;;;;;;;5.10;2.63;;;;;;;;;;5024406;28;20652;-54
2022/09/24 01:21:56;;;;;;;5.37;2.80;;;;;;;;;;5026089;28;20283;-54
2022/09/24 01:24:32;;;;;;;3.53;2.70;;;;;;;;;;5010367;28;20662;-54
2022/09/24 01:27:21;;;;;;;3.73;2.40;;;;;;;;;;5023922;28;20319;-50
2022/09/24 01:30:01;;;;;;;1.93;1.73;;;;;;;;;;5004013;28;20207;-52
2022/09/24 01:32:33;;;;;;;1.90;1.70;;;;;;;;;;5003517;28;20215;-52
2022/09/24 01:35:23;;;;;;;2.53;2.10;;;;;;;;;;5017864;28;20310;-50
2022/09/24 01:37:59;;;;;;;3.20;2.50;;;;;;;;;;5010049;28;20652;-51
2022/09/24 01:40:27;;;;;;;3.90;2.60;;;;;;;;;;5005806;28;20278;-53
2022/09/24 01:42:55;;;;;;;4.07;2.60;;;;;;;;;;5006866;28;20543;-51
2022/09/24 01:45:23;;;;;;;3.03;2.40;;;;;;;;;;5005717;28;20432;-52
2022/09/24 01:47:49;;;;;;;4.57;2.80;;;;;;;;;;5006905;28;20247;-50
2022/09/24 01:50:17;;;;;;;2.43;2.23;;;;;;;;;;5021300;28;20314;-55
2022/09/24 01:53:13;;;;;;;4.27;2.77;;;;;;;;;;5011716;28;20274;-51
2022/09/24 01:55:44;;;;;;;3.10;2.30;;;;;;;;;;5019041;28;20294;-51
2022/09/24 01:58:15;;;;;;;3.30;2.23;;;;;;;;;;5006985;28;20254;-51
2022/09/24 02:00:45;;;;;;;3.67;2.10;;;;;;;;;;4994959;28;20290;-51
2022/09/24 02:03:16;;;;;;;3.97;2.10;;;;;;;;;;5008301;28;20195;-51
2022/09/24 02:05:54;;;;;;;2.97;2.60;;;;;;;;;;5000984;28;20234;-51
2022/09/24 02:08:28;;;;;;;3.77;2.30;;;;;;;;;;4991529;28;20286;-52
2022/09/24 02:11:13;;;;;;;4.10;2.13;;;;;;;;;;5006908;28;20280;-51
2022/09/24 02:13:55;;;;;;;2.33;2.03;;;;;;;;;;5022890;28;20251;-54
2022/09/24 02:16:48;;;;;;;2.17;1.97;;;;;;;;;;5010261;28;20306;-52
2022/09/24 02:19:18;;;;;;;2.77;2.13;;;;;;;;;;5023477;28;20286;-53
2022/09/24 02:21:45;;;;;;;2.03;1.67;;;;;;;;;;5009450;28;20303;-50
2022/09/24 02:24:31;;;;;;;2.80;2.10;;;;;;;;;;5024731;28;20228;-52
2022/09/24 02:26:57;;;;;;;2.33;2.13;;;;;;;;;;5025367;28;20373;-50
2022/09/24 02:29:24;;;;;;;2.63;1.83;;;;;;;;;;5027524;28;20283;-51
2022/09/24 02:31:53;;;;;;;3.80;2.43;;;;;;;;;;5008595;28;20637;-51
2022/09/24 02:34:24;;;;;;;2.97;2.17;;;;;;;;;;5009131;28;20259;-55
2022/09/24 02:36:58;;;;;;;2.40;2.13;;;;;;;;;;5004356;28;20304;-52
2022/09/24 02:39:25;;;;;;;2.93;2.30;;;;;;;;;;5028519;28;20530;-51
2022/09/24 02:41:52;;;;;;;2.60;1.90;;;;;;;;;;5027583;28;20278;-53
2022/09/24 02:44:19;;;;;;;2.70;2.03;;;;;;;;;;5025035;28;20208;-51
2022/09/24 02:46:45;;;;;;;2.77;2.10;;;;;;;;;;5022565;28;20314;-55
2022/09/24 02:49:13;;;;;;;3.30;2.00;;;;;;;;;;5027856;28;20218;-53
2022/09/24 02:51:40;;;;;;;3.00;2.50;;;;;;;;;;5029334;28;20223;-51
2022/09/24 02:54:07;;;;;;;2.47;2.00;;;;;;;;;;5027444;28;20383;-52
2022/09/24 02:56:34;;;;;;;2.43;2.10;;;;;;;;;;5021062;28;20219;-52
2022/09/24 02:59:01;;;;;;;2.30;1.80;;;;;;;;;;5026007;28;20238;-54
2022/09/24 03:01:29;;;;;;;2.23;1.90;;;;;;;;;;5025636;28;20682;-55
2022/09/24 03:03:55;;;;;;;3.23;1.70;;;;;;;;;;5006863;28;20210;-53
2022/09/24 03:06:23;;;;;;;2.30;2.00;;;;;;;;;;5029246;28;20635;-54
2022/09/24 03:08:51;;;;;;;2.43;2.00;;;;;;;;;;5029284;28;20286;-54
2022/09/24 03:11:17;;;;;;;2.40;2.00;;;;;;;;;;5025673;28;20656;-53
2022/09/24 03:13:44;;;;;;;3.10;2.00;;;;;;;;;;5027377;28;20219;-54
2022/09/24 03:16:10;;;;;;;2.27;1.93;;;;;;;;;;5025774;28;20319;-55
2022/09/24 03:18:37;;;;;;;1.97;1.70;;;;;;;;;;5024977;28;20666;-54
2022/09/24 03:21:05;;;;;;;2.40;1.63;;;;;;;;;;5028100;28;20295;-52
2022/09/24 03:23:32;;;;;;;2.10;1.67;;;;;;;;;;5020462;28;20290;-55
2022/09/24 03:25:58;;;;;;;2.67;1.77;;;;;;;;;;5019514;28;20667;-52
2022/09/24 03:28:25;;;;;;;1.83;1.63;;;;;;;;;;5025553;28;20727;-52
2022/09/24 03:31:00;;;;;;;1.50;1.20;;;;;;;;;;5024955;28;20199;-54
2022/09/24 03:33:32;;;;;;;1.87;1.50;;;;;;;;;;5024916;28;20812;-53
2022/09/24 03:35:59;;;;;;;1.90;1.77;;;;;;;;;;5028898;28;20593;-53
2022/09/24 03:38:26;;;;;;;2.63;2.00;;;;;;;;;;5024899;28;20588;-55
2022/09/24 03:40:52;;;;;;;3.90;2.30;;;;;;;;;;5027355;28;20303;-55
2022/09/24 03:43:19;;;;;;;1.83;1.50;;;;;;;;;;5028823;28;20334;-54
2022/09/24 03:45:45;;;;;;;1.97;1.77;;;;;;;;;;5019365;28;20242;-54
2022/09/24 03:48:12;;;;;;;1.87;1.67;;;;;;;;;;5022178;28;20647;-54
2022/09/24 03:50:38;;;;;;;2.90;2.10;;;;;;;;;;5026768;28;20677;-55
2022/09/24 03:53:04;;;;;;;2.80;2.17;;;;;;;;;;5024804;28;20299;-51
2022/09/24 03:55:31;;;;;;;3.97;2.30;;;;;;;;;;5025418;28;20251;-54
2022/09/24 03:57:57;;;;;;;2.93;2.27;;;;;;;;;;5023485;28;20205;-51
2022/09/24 04:00:23;;;;;;;2.47;2.17;;;;;;;;;;5025378;28;20286;-51
2022/09/24 04:02:50;;;;;;;3.13;2.40;;;;;;;;;;5030029;28;20286;-51
2022/09/24 04:05:16;;;;;;;3.73;2.70;;;;;;;;;;5025970;28;20231;-52
2022/09/24 04:07:43;;;;;;;3.37;2.07;;;;;;;;;;5018290;28;20283;-51
2022/09/24 04:10:10;;;;;;;2.30;2.10;;;;;;;;;;5023921;28;20677;-50
2022/09/24 04:12:37;;;;;;;2.57;2.20;;;;;;;;;;5028805;28;20223;-52
2022/09/24 04:15:03;;;;;;;2.30;1.90;;;;;;;;;;5019240;28;20307;-50
2022/09/24 04:17:30;;;;;;;2.43;2.00;;;;;;;;;;5006597;28;20278;-51
2022/09/24 04:19:57;;;;;;;1.83;1.60;;;;;;;;;;5026458;28;20697;-50
2022/09/24 04:22:25;;;;;;;1.83;1.40;;;;;;;;;;5025168;28;20293;-54
2022/09/24 04:24:51;;;;;;;2.17;1.83;;;;;;;;;;5022826;28;20231;-53
2022/09/24 04:27:18;;;;;;;2.20;2.00;;;;;;;;;;5022710;28;20257;-51
2022/09/24 04:29:44;;;;;;;2.77;2.13;;;;;;;;;;5025372;28;20199;-50
2022/09/24 04:32:10;;;;;;;1.83;1.50;;;;;;;;;;5023098;28;20231;-51
2022/09/24 04:34:37;;;;;;;2.20;2.00;;;;;;;;;;5021924;28;20235;-51
2022/09/24 04:37:04;;;;;;;3.63;1.97;;;;;;;;;;5020946;28;20306;-51
2022/09/24 04:39:31;;;;;;;2.40;1.97;;;;;;;;;;5026149;28;20299;-51
2022/09/24 04:41:57;;;;;;;2.70;2.10;;;;;;;;;;5025836;28;20310;-53
2022/09/24 04:44:23;;;;;;;2.97;2.17;;;;;;;;;;5000295;28;20275;-51
2022/09/24 04:46:50;;;;;;;2.33;1.90;;;;;;;;;;5018818;28;20258;-50
2022/09/24 04:49:16;;;;;;;3.07;2.40;;;;;;;;;;5021874;28;20285;-51
2022/09/24 04:51:42;;;;;;;2.40;2.20;;;;;;;;;;5024339;28;20223;-51
2022/09/24 04:54:09;;;;;;;2.67;2.20;;;;;;;;;;5018746;28;20219;-51
2022/09/24 04:56:35;;;;;;;2.23;1.93;;;;;;;;;;5022517;28;20298;-53
2022/09/24 04:59:01;;;;;;;2.40;1.70;;;;;;;;;;5023505;28;20254;-51
2022/09/24 05:01:28;;;;;;;2.20;2.00;;;;;;;;;;5025507;28;20701;-52
2022/09/24 05:03:55;;;;;;;3.33;2.20;;;;;;;;;;5025159;28;20698;-51
2022/09/24 05:06:21;;;;;;;2.80;2.00;;;;;;;;;;5026700;28;20302;-50
2022/09/24 05:08:47;;;;;;;2.47;1.90;;;;;;;;;;5022090;28;20278;-51
2022/09/24 05:11:14;;;;;;;2.97;2.00;;;;;;;;;;5024923;28;20290;-51
2022/09/24 05:13:40;;;;;;;2.40;2.00;;;;;;;;;;5027268;28;20227;-53
2022/09/24 05:16:07;;;;;;;1.70;1.53;;;;;;;;;;5017133;28;20306;-51
2022/09/24 05:18:33;;;;;;;1.63;1.40;;;;;;;;;;5023774;28;20254;-52
2022/09/24 05:20:59;;;;;;;2.00;1.80;;;;;;;;;;5028414;28;20286;-51
2022/09/24 05:23:26;;;;;;;2.70;2.17;;;;;;;;;;5029802;28;20278;-51
2022/09/24 05:28:38;;;;;;;1.90;1.60;;;;;;;;;;5025994;28;20280;-52
2022/09/24 05:31:04;;;;;;;2.00;1.80;;;;;;;;;;5025342;28;20538;-51
2022/09/24 05:33:31;;;;;;;3.10;2.37;;;;;;;;;;5013627;28;20195;-54
2022/09/24 05:35:57;;;;;;;3.00;2.17;;;;;;;;;;5019649;28;20243;-54
2022/09/24 05:38:24;;;;;;;3.60;2.00;;;;;;;;;;5020704;28;20646;-51
2022/09/24 05:40:50;;;;;;;2.10;1.90;;;;;;;;;;5022844;28;20214;-53
2022/09/24 05:43:20;;;;;;;3.50;2.50;;;;;;;;;;5027733;28;20200;-56
2022/09/24 05:45:48;;;;;;;2.93;2.10;;;;;;;;;;5028336;28;20306;-51
2022/09/24 05:48:15;;;;;;;2.30;1.70;;;;;;;;;;5022494;28;20299;-54
2022/09/24 05:50:42;;;;;;;1.93;1.60;;;;;;;;;;5026388;28;20209;-52
2022/09/24 05:53:08;;;;;;;2.63;2.20;;;;;;;;;;5026327;28;20667;-54
2022/09/24 05:55:35;;;;;;;2.70;2.10;;;;;;;;;;5026366;28;20312;-54
2022/09/24 05:58:06;;;;;;;2.27;1.87;;;;;;;;;;5028046;28;20287;-53
2022/09/24 06:00:34;;;;;;;2.50;2.10;;;;;;;;;;5022172;28;20204;-51
2022/09/24 06:03:14;;;;;;;2.93;2.50;;;;;;;;;;5031058;28;20286;-51
2022/09/24 06:05:48;;;;;;;2.10;1.90;;;;;;;;;;5026159;28;20702;-53
2022/09/24 06:08:15;;;;;;;2.00;1.80;;;;;;;;;;5028739;28;20291;-51
2022/09/24 06:10:44;;;;;;;2.13;1.80;;;;;;;;;;5027708;28;20278;-52
2022/09/24 06:13:12;;;;;;;2.20;1.90;;;;;;;;;;5011927;28;20727;-51
2022/09/24 06:15:41;;;;;;;2.57;2.07;;;;;;;;;;5027976;28;20304;-51
2022/09/24 06:18:08;;;;;;;1.97;1.60;;;;;;;;;;5020112;28;20875;-51
2022/09/24 06:20:35;;;;;;;2.40;1.50;;;;;;;;;;5028160;28;20234;-51
2022/09/24 06:23:01;;;;;;;1.93;1.73;;;;;;;;;;5018549;28;20210;-51
2022/09/24 06:25:28;;;;;;;2.17;1.60;;;;;;;;;;5027360;28;20327;-51
2022/09/24 06:28:00;;;;;;;2.50;1.77;;;;;;;;;;5026567;28;20200;-54
2022/09/24 06:30:28;;;;;;;1.40;1.30;;;;;;;;;;5026248;28;20731;-54
2022/09/24 06:32:54;;;;;;;2.20;1.80;;;;;;;;;;5030488;28;20690;-53
2022/09/24 06:35:20;;;;;;;1.73;1.43;;;;;;;;;;5016876;28;20302;-52
2022/09/24 06:37:48;;;;;;;1.53;1.37;;;;;;;;;;5029767;28;20287;-51
2022/09/24 06:40:15;;;;;;;1.50;1.40;;;;;;;;;;5024125;28;20291;-51
2022/09/24 06:42:41;;;;;;;1.67;1.50;;;;;;;;;;5026440;28;20745;-51
2022/09/24 06:45:08;;;;;;;1.57;1.40;;;;;;;;;;5027636;28;20326;-51
2022/09/24 06:47:35;;;;;;;2.10;1.90;;;;;;;;;;5025202;28;20683;-51
2022/09/24 06:50:01;;;;;;;2.57;1.70;;;;;;;;;;5028828;28;20310;-52
2022/09/24 06:52:28;;;;;;;2.53;1.90;;;;;;;;;;5027499;28;20282;-52
2022/09/24 06:54:55;;;;;;;5.53;3.03;;;;;;;;;;5027508;28;20302;-51
2022/09/24 06:57:21;;;;;;;2.10;1.87;;;;;;;;;;5027859;28;20326;-50
2022/09/24 06:59:53;;;;;;;1.67;1.43;;;;;;;;;;5025140;28;20200;-51
2022/09/24 07:02:20;;;;;;;1.63;1.50;;;;;;;;;;5014009;28;20266;-51
2022/09/24 07:04:46;;;;;;;2.03;1.63;;;;;;;;;;5029879;28;20195;-51
2022/09/24 07:07:28;;;;;;;1.97;1.80;;;;;;;;;;5029279;28;20226;-51
2022/09/24 07:09:55;;;;;;;1.70;1.60;;;;;;;;;;5024169;28;20726;-54
2022/09/24 07:12:22;;;;;;;5.17;1.80;;;;;;;;;;5019366;28;20291;-51
2022/09/24 07:14:48;;;;;;;2.20;1.90;;;;;;;;;;5026311;28;20778;-52
2022/09/24 07:17:15;;;;;;;1.90;1.50;;;;;;;;;;5028947;28;20282;-54
2022/09/24 07:19:41;;;;;;;3.27;2.00;;;;;;;;;;5027491;28;20286;-53
2022/09/24 07:22:07;;;;;;;2.13;1.80;;;;;;;;;;5027798;28;20229;-51
2022/09/24 07:24:34;;;;;;;3.20;2.50;;;;;;;;;;5029575;28;20302;-53
2022/09/24 07:27:03;;;;;;;3.60;2.50;;;;;;;;;;5021008;28;20757;-51
2022/09/24 07:29:29;;;;;;;2.70;2.20;;;;;;;;;;5024963;28;20286;-54
2022/09/24 07:31:56;;;;;;;3.00;2.23;;;;;;;;;;5026242;28;20303;-52
2022/09/24 07:34:22;;;;;;;4.20;3.00;;;;;;;;;;5027718;28;20643;-51
2022/09/24 07:36:48;;;;;;;2.27;2.07;;;;;;;;;;5025480;28;20306;-52
2022/09/24 07:39:15;;;;;;;2.40;2.17;;;;;;;;;;5026746;28;20239;-52
2022/09/24 07:41:41;;;;;;;3.70;2.20;;;;;;;;;;5018384;28;20301;-51
2022/09/24 07:44:08;;;;;;;4.53;3.03;;;;;;;;;;5018495;28;20214;-51
2022/09/24 07:46:35;;;;;;;3.70;3.30;;;;;;;;;;5028510;28;20258;-52
2022/09/24 07:49:01;;;;;;;3.03;2.40;;;;;;;;;;5026275;28;20210;-50
2022/09/24 07:51:28;;;;;;;2.00;1.60;;;;;;;;;;5017820;28;20283;-51
2022/09/24 07:53:55;;;;;;;1.92;1.55;;;;;;;;;;5024231;28;20326;-49
2022/09/24 07:56:22;;;;;;;2.30;1.80;;;;;;;;;;5009303;28;20255;-51
2022/09/24 07:58:52;;;;;;;2.25;1.80;;;;;;;;;;5026643;28;20196;-51
2022/09/24 08:01:19;;;;;;;4.40;3.05;;;;;;;;;;5021211;28;20282;-50
2022/09/24 08:03:45;;;;;;;4.18;3.15;;;;;;;;;;5022839;28;20295;-52
2022/09/24 08:06:12;;;;;;;4.18;3.10;;;;;;;;;;5023643;28;20246;-51
2022/09/24 08:08:39;;;;;;;5.07;3.55;;;;;;;;;;5023361;28;20583;-53
2022/09/24 08:11:06;;;;;;;5.25;3.88;;;;;;;;;;5027475;28;20462;-51
2022/09/24 08:13:35;;;;;;;6.57;3.40;;;;;;;;;;5006241;28;20206;-51
2022/09/24 08:16:03;;;;;;;9.15;4.13;;;;;;;;;;5020600;28;20314;-52
2022/09/24 08:18:31;;;;;;;8.00;5.65;;;;;;;;;;5023141;28;20199;-51
2022/09/24 08:20:58;;;;;;;5.90;4.57;;;;;;;;;;5027590;28;20283;-52
2022/09/24 08:23:25;;;;;;;8.82;5.88;;;;;;;;;;5024566;28;20278;-51
2022/09/24 08:25:55;;;;;;;5.65;4.40;;;;;;;;;;5023367;28;20237;-53
2022/09/24 08:28:21;;;;;;;5.07;3.42;;;;;;;;;;5022682;28;20292;-51
2022/09/24 08:30:47;;;;;;;6.78;3.70;;;;;;;;;;5024924;28;20222;-51
2022/09/24 08:33:14;;;;;;;4.35;2.97;;;;;;;;;;5021554;28;20200;-52
2022/09/24 08:35:41;;;;;;;7.43;5.13;;;;;;;;;;5023192;28;20311;-50
2022/09/24 08:38:08;;;;;;;4.93;2.67;;;;;;;;;;5022865;28;20235;-53
2022/09/24 08:40:49;;;;;;;4.28;2.25;;;;;;;;;;5018800;28;20227;-51
2022/09/24 08:43:43;;;;;;;2.45;2.10;;;;;;;;;;5010154;28;20231;-51
2022/09/24 08:49:04;;;;;;;2.40;1.92;;;;;;;;;;5025208;28;20200;-51
2022/09/24 08:51:36;;;;;;;2.25;1.98;;;;;;;;;;5008938;28;20450;-51
2022/09/24 08:54:08;;;;;;;1.88;1.60;;;;;;;;;;5001143;28;20296;-50
2022/09/24 08:56:37;;;;;;;3.58;2.47;;;;;;;;;;5008934;28;20227;-53
2022/09/24 08:59:21;;;;;;;3.20;2.42;;;;;;;;;;5024142;28;20208;-53
2022/09/24 09:01:56;;;;;;;2.13;1.92;;;;;;;;;;5009279;28;20654;-52
2022/09/24 09:04:53;;;;;;;2.67;1.60;;;;;;;;;;4991074;28;20686;-50
2022/09/24 09:07:27;;;;;;;4.28;2.50;;;;;;;;;;5018538;28;20622;-52
2022/09/24 09:10:06;;;;;;;2.28;1.70;;;;;;;;;;5006266;28;20286;-51
2022/09/24 09:12:38;;;;;;;4.38;3.00;;;;;;;;;;5002824;28;20227;-55
2022/09/24 09:15:19;;;;;;;5.82;3.65;;;;;;;;;;5019642;28;20282;-52
2022/09/24 09:17:49;;;;;;;3.72;2.67;;;;;;;;;;5005320;28;21905;-52
2022/09/24 09:20:23;;;;;;;8.63;5.20;;;;;;;;;;5026728;28;20226;-54
2022/09/24 09:22:52;;;;;;;7.65;4.35;;;;;;;;;;5027179;28;20196;-52
2022/09/24 09:25:23;;;;;;;8.30;4.63;;;;;;;;;;5024926;28;20302;-53
2022/09/24 09:27:59;;;;;;;4.75;3.88;;;;;;;;;;5023268;28;20278;-52
2022/09/24 09:30:32;;;;;;;10.70;5.57;;;;;;;;;;5026199;28;20282;-56
2022/09/24 09:33:58;;;;;;;8.23;4.85;;;;;;;;;;5010098;28;20326;-54
2022/09/24 09:36:37;;;;;;;10.55;6.10;;;;;;;;;;4957246;28;20229;-53
2022/09/24 09:39:21;;;;;;;10.30;6.45;;;;;;;;;;4960229;28;20576;-52
2022/09/24 09:42:26;;;;;;;16.98;10.40;;;;;;;;;;4991676;28;20196;-52
2022/09/24 09:44:53;;;;;;;17.20;9.23;;;;;;;;;;5018748;28;20581;-50
2022/09/24 09:47:41;;;;;;;9.43;6.50;;;;;;;;;;5021804;28;20214;-54
2022/09/24 09:50:25;;;;;;;13.88;7.63;;;;;;;;;;5019417;28;20250;-52
2022/09/24 09:52:51;;;;;;;11.60;6.82;;;;;;;;;;5023671;28;20282;-54
2022/09/24 09:55:23;;;;;;;12.35;7.72;;;;;;;;;;5019746;28;20374;-54
2022/09/24 09:57:50;;;;;;;14.38;8.82;;;;;;;;;;5022007;28;20286;-54
2022/09/24 10:00:27;;;;;;;15.35;8.10;;;;;;;;;;5004526;28;20192;-53
2022/09/24 10:02:53;;;;;;;11.25;7.22;;;;;;;;;;5003185;28;20249;-51
2022/09/24 10:05:21;;;;;;;10.90;8.60;;;;;;;;;;5021545;28;20661;-51
2022/09/24 10:07:58;;;;;;;15.38;9.10;;;;;;;;;;5007589;28;20668;-54
2022/09/24 10:10:27;;;;;;;11.00;6.80;;;;;;;;;;5030697;28;20286;-53
2022/09/24 10:13:14;;;;;;;15.95;9.40;;;;;;;;;;5029860;28;20228;-51
2022/09/24 10:15:48;;;;;;;12.82;8.57;;;;;;;;;;5030450;28;20662;-51
2022/09/24 10:18:15;;;;;;;12.48;8.55;;;;;;;;;;5026673;28;20258;-53
2022/09/24 10:20:46;;;;;;;11.88;8.10;;;;;;;;;;5025299;28;20227;-51
2022/09/24 10:23:18;;;;;;;12.52;7.78;;;;;;;;;;5016007;28;20242;-51
2022/09/24 10:25:50;;;;;;;11.15;7.97;;;;;;;;;;5011959;28;20294;-48
2022/09/24 10:31:10;;;;;;;11.43;6.75;;;;;;;;;;5029372;28;20643;-53
2022/09/24 10:33:42;;;;;;;11.38;7.75;;;;;;;;;;5011283;28;20734;-51
2022/09/24 10:36:23;;;;;;;8.38;5.10;;;;;;;;;;5008320;28;20633;-55
2022/09/24 10:39:19;;;;;;;15.80;10.30;;;;;;;;;;5028849;28;20223;-54
2022/09/24 10:41:51;;;;;;;10.55;5.88;;;;;;;;;;5024202;28;20390;-56
2022/09/24 10:44:19;;;;;;;13.02;8.07;;;;;;;;;;5022781;28;20283;-54
2022/09/24 10:47:11;;;;;;;11.48;8.23;;;;;;;;;;5012688;28;20310;-55
2022/09/24 10:49:54;;;;;;;12.40;7.47;;;;;;;;;;5015095;28;20246;-52
2022/09/24 10:52:39;;;;;;;15.38;8.52;;;;;;;;;;5025851;28;20275;-53
2022/09/24 10:55:24;;;;;;;11.43;6.78;;;;;;;;;;5008533;28;20286;-52
2022/09/24 10:58:01;;;;;;;10.70;6.93;;;;;;;;;;5028494;28;20238;-55
2022/09/24 11:00:36;;;;;;;12.68;6.40;;;;;;;;;;5010029;28;20203;-56
2022/09/24 11:03:07;;;;;;;7.53;4.85;;;;;;;;;;5025437;28;20289;-55
2022/09/24 11:05:54;;;;;;;8.63;5.53;;;;;;;;;;5011436;28;20752;-57
2022/09/24 11:08:48;;;;;;;8.05;5.80;;;;;;;;;;5011518;28;20291;-55
2022/09/24 11:11:38;;;;;;;9.00;5.55;;;;;;;;;;5024877;28;20283;-57
2022/09/24 11:14:27;;;;;;;7.85;5.45;;;;;;;;;;5024227;28;20238;-57
2022/09/24 11:17:12;;;;;;;13.25;6.32;;;;;;;;;;5007819;28;20772;-54
2022/09/24 11:20:03;;;;;;;10.38;6.78;;;;;;;;;;5022333;28;20290;-54
2022/09/24 11:22:56;;;;;;;9.52;5.63;;;;;;;;;;5029922;28;20278;-57
2022/09/24 11:25:37;;;;;;;8.57;5.82;;;;;;;;;;5011698;28;20306;-59
2022/09/24 11:28:25;;;;;;;8.88;5.75;;;;;;;;;;5008314;28;20286;-56
2022/09/24 11:31:03;;;;;;;10.32;5.93;;;;;;;;;;5027558;28;20286;-57
2022/09/24 11:33:45;;;;;;;9.88;5.55;;;;;;;;;;5009269;28;20199;-57
2022/09/24 11:36:55;;;;;;;8.70;4.68;;;;;;;;;;5010900;28;20334;-56
2022/09/24 11:39:47;;;;;;;7.50;4.20;;;;;;;;;;4981993;28;20767;-55
2022/09/24 11:42:33;;;;;;;6.25;4.13;;;;;;;;;;5003047;28;20287;-55
2022/09/24 11:45:18;;;;;;;5.60;3.55;;;;;;;;;;5026312;28;20683;-53
2022/09/24 11:47:59;;;;;;;7.45;3.80;;;;;;;;;;5025795;28;20199;-52
2022/09/24 11:50:44;;;;;;;5.93;3.38;;;;;;;;;;5030246;28;20238;-55
2022/09/24 11:53:32;;;;;;;8.13;3.45;;;;;;;;;;5018350;28;20188;-53
2022/09/24 11:56:02;;;;;;;7.20;3.75;;;;;;;;;;5010807;28;20229;-55
2022/09/24 11:58:42;;;;;;;4.25;3.15;;;;;;;;;;5013186;28;20199;-52
2022/09/24 12:01:17;;;;;;;4.60;3.17;;;;;;;;;;5005061;28;20247;-51
2022/09/24 12:03:47;;;;;;;7.30;3.63;;;;;;;;;;4995354;28;20227;-52
2022/09/24 12:06:19;;;;;;;6.00;3.35;;;;;;;;;;5029585;28;20660;-51
2022/09/24 12:09:00;;;;;;;7.25;3.70;;;;;;;;;;5011934;28;20293;-51
2022/09/24 12:11:40;;;;;;;5.45;3.50;;;;;;;;;;4994706;28;20654;-51
2022/09/24 12:14:12;;;;;;;6.57;3.13;;;;;;;;;;5028648;28;20249;-52
2022/09/24 12:16:40;;;;;;;7.88;3.33;;;;;;;;;;5011163;28;20257;-53
2022/09/24 12:19:20;;;;;;;4.10;3.28;;;;;;;;;;5011089;28;20207;-51
2022/09/24 12:21:48;;;;;;;6.53;3.30;;;;;;;;;;5011402;28;20227;-51
2022/09/24 12:24:23;;;;;;;5.57;3.42;;;;;;;;;;5011525;28;20227;-51
2022/09/24 12:26:51;;;;;;;3.78;3.13;;;;;;;;;;5026855;28;20270;-51
2022/09/24 12:35:37;;;;;;;3.88;3.17;;;;;;;;;;5007415;28;20298;-52
2022/09/24 12:38:08;;;;;;;5.55;3.22;;;;;;;;;;5027889;28;20310;-52
2022/09/24 12:40:58;;;;;;;4.22;3.15;;;;;;;;;;5010952;28;20644;-53
2022/09/24 12:43:48;;;;;;;6.30;3.35;;;;;;;;;;5011104;28;20569;-51
2022/09/24 12:46:37;;;;;;;6.60;3.90;;;;;;;;;;5023929;28;20247;-52
2022/09/24 12:49:17;;;;;;;7.10;3.10;;;;;;;;;;5011439;28;20223;-51
2022/09/24 12:51:43;;;;;;;5.93;3.28;;;;;;;;;;5023686;28;20290;-52
2022/09/24 12:54:30;;;;;;;5.50;3.65;;;;;;;;;;5016934;28;20275;-52
2022/09/24 12:57:24;;;;;;;6.25;3.42;;;;;;;;;;5028780;28;20305;-51
2022/09/24 12:59:52;;;;;;;5.97;3.35;;;;;;;;;;5026197;28;20690;-51
2022/09/24 13:02:24;;;;;;;5.78;3.17;;;;;;;;;;5025334;28;20234;-51
2022/09/24 13:04:59;;;;;;;4.20;2.90;;;;;;;;;;5027094;28;20191;-52
2022/09/24 13:07:36;;;;;;;4.18;2.80;;;;;;;;;;5029082;28;20274;-51
2022/09/24 13:10:11;;;;;;;4.82;3.38;;;;;;;;;;5010538;28;20758;-51
2022/09/24 13:12:37;;;;;;;5.20;3.65;;;;;;;;;;5024258;28;20241;-52
2022/09/24 13:15:06;;;;;;;4.22;3.38;;;;;;;;;;5026920;28;20282;-50
2022/09/24 13:17:34;;;;;;;5.15;3.17;;;;;;;;;;5013671;28;20311;-54
2022/09/24 13:20:24;;;;;;;4.30;3.22;;;;;;;;;;5025187;28;20286;-52
2022/09/24 13:23:18;;;;;;;4.38;3.00;;;;;;;;;;5010971;28;20278;-51
2022/09/24 13:25:53;;;;;;;6.38;3.88;;;;;;;;;;4993551;28;20306;-52
2022/09/24 13:28:26;;;;;;;8.60;4.05;;;;;;;;;;5027103;28;20763;-54
2022/09/24 13:31:25;;;;;;;3.60;3.13;;;;;;;;;;5028072;28;20281;-51
2022/09/24 13:33:58;;;;;;;5.07;3.35;;;;;;;;;;5009737;28;20194;-52
2022/09/24 13:36:37;;;;;;;5.72;3.65;;;;;;;;;;5010078;28;20270;-55
2022/09/24 13:39:29;;;;;;;3.22;2.80;;;;;;;;;;5028360;28;20203;-52
2022/09/24 13:42:17;;;;;;;6.20;3.63;;;;;;;;;;5031043;28;20726;-52
2022/09/24 13:44:55;;;;;;;6.25;3.22;;;;;;;;;;5030755;28;20394;-52
2022/09/24 13:47:45;;;;;;;5.93;3.50;;;;;;;;;;5026806;28;20231;-52
2022/09/24 13:50:16;;;;;;;4.15;3.30;;;;;;;;;;5013445;28;20276;-52
2022/09/24 13:52:57;;;;;;;6.88;3.63;;;;;;;;;;5030622;28;20279;-52
2022/09/24 13:55:31;;;;;;;4.45;3.17;;;;;;;;;;5032147;28;20302;-55
2022/09/24 13:57:57;;;;;;;5.72;3.22;;;;;;;;;;5031294;28;20266;-54
2022/09/24 14:00:26;;;;;;;5.07;3.00;;;;;;;;;;5012192;28;20278;-51
2022/09/24 14:03:01;;;;;;;3.97;3.00;;;;;;;;;;5030952;28;20202;-51
2022/09/24 14:05:31;;;;;;;4.18;2.80;;;;;;;;;;5013736;28;20655;-50
2022/09/24 14:08:26;;;;;;;4.05;3.28;;;;;;;;;;5014857;28;20719;-54
2022/09/24 14:11:09;;;;;;;3.70;3.30;;;;;;;;;;5029772;28;20207;-52
2022/09/24 14:13:44;;;;;;;4.25;3.15;;;;;;;;;;5031479;28;20203;-53
2022/09/24 14:16:18;;;;;;;4.63;3.22;;;;;;;;;;5031057;28;20217;-52
2022/09/24 14:18:46;;;;;;;6.05;3.25;;;;;;;;;;5030294;28;20623;-51
2022/09/24 14:21:24;;;;;;;5.63;3.67;;;;;;;;;;5030683;28;20287;-52
2022/09/24 14:23:57;;;;;;;5.10;3.22;;;;;;;;;;5012227;28;20227;-52
2022/09/24 14:26:33;;;;;;;5.63;4.38;;;;;;;;;;5013551;28;20250;-51
2022/09/24 14:29:03;;;;;;;4.85;3.30;;;;;;;;;;5030271;28;20227;-51
2022/09/24 14:31:30;;;;;;;4.13;3.03;;;;;;;;;;5025740;28;20203;-52
2022/09/24 14:33:58;;;;;;;5.20;3.28;;;;;;;;;;5029248;28;20361;-52
2022/09/24 14:36:28;;;;;;;4.25;3.13;;;;;;;;;;5012808;28;20299;-52
2022/09/24 14:39:01;;;;;;;3.65;2.92;;;;;;;;;;5031072;28;20287;-51
2022/09/24 14:41:30;;;;;;;4.20;3.10;;;;;;;;;;5023013;28;20195;-50
2022/09/24 14:44:04;;;;;;;3.60;2.92;;;;;;;;;;5027689;28;20264;-52
2022/09/24 14:46:33;;;;;;;4.18;2.75;;;;;;;;;;5030072;28;20301;-52
2022/09/24 14:49:29;;;;;;;3.63;2.78;;;;;;;;;;5010158;28;20199;-51
2022/09/24 14:52:00;;;;;;;3.25;2.40;;;;;;;;;;5001349;28;20208;-51
2022/09/24 14:54:32;;;;;;;4.30;3.03;;;;;;;;;;5012183;28;20200;-53
2022/09/24 14:57:16;;;;;;;3.60;2.92;;;;;;;;;;5027836;28;20323;-51
2022/09/24 14:59:44;;;;;;;3.35;2.50;;;;;;;;;;5029843;28;20666;-52
2022/09/24 15:02:19;;;;;;;6.35;2.88;;;;;;;;;;5005404;28;20211;-53
2022/09/24 15:04:47;;;;;;;4.72;3.22;;;;;;;;;;5016872;28;20206;-54
2022/09/24 15:07:20;;;;;;;5.75;3.20;;;;;;;;;;5008470;28;20306;-51
2022/09/24 15:09:52;;;;;;;4.20;3.10;;;;;;;;;;5029747;28;20746;-52
2022/09/24 15:12:20;;;;;;;6.00;2.95;;;;;;;;;;5025518;28;20227;-54
2022/09/24 15:15:16;;;;;;;4.32;2.90;;;;;;;;;;4989586;28;20238;-50
2022/09/24 15:17:43;;;;;;;5.72;2.63;;;;;;;;;;4996238;28;20312;-51
2022/09/24 15:20:12;;;;;;;3.80;2.97;;;;;;;;;;4998092;28;20213;-51
2022/09/24 15:22:39;;;;;;;4.65;2.75;;;;;;;;;;5021009;28;20709;-56
2022/09/24 15:25:06;;;;;;;3.67;2.83;;;;;;;;;;5023973;28;20626;-50
2022/09/24 15:27:35;;;;;;;3.25;2.95;;;;;;;;;;5022631;28;20271;-53
2022/09/24 15:30:04;;;;;;;5.93;3.08;;;;;;;;;;5022390;28;20286;-52